Time;durP1;ratioP1;P1;durP2;ratioP2;P2;SDS_P1;SDS_P2;PMS_P1;PMS_P2;Temp;Humidity;BMP_temperature;BMP_pressure;BME280_temperature;BME280_humidity;BME280_pressure;Samples;Min_cycle;Max_cycle;Signal;HPM_P1;HPM_P2
2020/12/07 00:00:34;;;;;;;43.60;34.73;;;;;;;;;;4994522;28;20262;-90
2020/12/07 00:03:08;;;;;;;47.30;37.13;;;;;;;;;;5006578;28;20164;-95
2020/12/07 00:05:39;;;;;;;48.27;36.13;;;;;;;;;;5017446;28;20189;-95
2020/12/07 00:08:11;;;;;;;47.47;36.80;;;;;;;;;;5017412;28;20182;-93
2020/12/07 00:10:40;;;;;;;50.23;37.77;;;;;;;;;;5008475;28;20159;-92
2020/12/07 00:13:10;;;;;;;50.30;35.37;;;;;;;;;;5012089;28;20174;-92
2020/12/07 00:15:39;;;;;;;49.40;35.83;;;;;;;;;;5007299;28;20249;-92
2020/12/07 00:18:06;;;;;;;43.07;33.90;;;;;;;;;;5005673;28;20175;-92
2020/12/07 00:20:37;;;;;;;42.43;32.60;;;;;;;;;;5009886;28;20182;-92
2020/12/07 00:23:12;;;;;;;41.87;32.57;;;;;;;;;;5011767;28;20182;-92
2020/12/07 00:25:44;;;;;;;47.67;32.97;;;;;;;;;;5011222;28;20234;-92
2020/12/07 00:28:14;;;;;;;42.63;31.73;;;;;;;;;;5009296;28;20246;-92
2020/12/07 00:30:46;;;;;;;38.97;31.10;;;;;;;;;;5012151;28;20194;-92
2020/12/07 00:33:15;;;;;;;42.80;31.53;;;;;;;;;;5015102;28;20187;-92
2020/12/07 00:35:45;;;;;;;40.07;31.20;;;;;;;;;;5017554;28;20214;-93
2020/12/07 00:38:15;;;;;;;41.57;31.57;;;;;;;;;;5019336;28;20165;-94
2020/12/07 00:40:45;;;;;;;40.03;30.40;;;;;;;;;;5020158;28;20174;-93
2020/12/07 00:43:19;;;;;;;42.90;32.20;;;;;;;;;;5019209;28;20242;-93
2020/12/07 00:45:54;;;;;;;47.53;33.63;;;;;;;;;;5020928;28;20195;-93
2020/12/07 00:48:21;;;;;;;44.90;31.53;;;;;;;;;;5019429;28;20179;-93
2020/12/07 00:50:52;;;;;;;43.27;32.00;;;;;;;;;;5020666;28;20155;-93
2020/12/07 00:53:23;;;;;;;47.63;33.80;;;;;;;;;;5020605;28;20189;-93
2020/12/07 00:55:56;;;;;;;44.50;31.90;;;;;;;;;;5020098;28;20178;-94
2020/12/07 00:58:22;;;;;;;45.50;32.73;;;;;;;;;;5008991;28;20171;-90
2020/12/07 01:00:53;;;;;;;47.20;32.30;;;;;;;;;;4997291;28;20702;-90
2020/12/07 01:03:21;;;;;;;44.83;32.43;;;;;;;;;;4997004;28;20171;-91
2020/12/07 01:05:48;;;;;;;47.37;31.57;;;;;;;;;;4996660;28;20255;-90
2020/12/07 01:08:21;;;;;;;42.83;31.83;;;;;;;;;;5018882;28;20180;-92
2020/12/07 01:10:57;;;;;;;46.37;33.13;;;;;;;;;;5020297;28;20160;-93
2020/12/07 01:13:26;;;;;;;50.73;33.77;;;;;;;;;;5020321;28;20170;-93
2020/12/07 01:15:57;;;;;;;45.17;31.77;;;;;;;;;;5020265;28;20205;-93
2020/12/07 01:18:23;;;;;;;46.03;32.87;;;;;;;;;;5019551;28;20156;-92
2020/12/07 01:20:55;;;;;;;48.40;33.63;;;;;;;;;;5016115;28;20174;-92
2020/12/07 01:23:28;;;;;;;43.70;30.07;;;;;;;;;;5016108;28;20182;-92
2020/12/07 01:25:58;;;;;;;43.37;30.93;;;;;;;;;;5016422;28;20164;-92
2020/12/07 01:28:24;;;;;;;46.83;31.60;;;;;;;;;;5016804;28;20178;-92
2020/12/07 01:30:55;;;;;;;45.43;32.43;;;;;;;;;;5015481;28;20255;-92
2020/12/07 01:33:26;;;;;;;46.53;32.43;;;;;;;;;;5016263;28;20180;-92
2020/12/07 01:35:56;;;;;;;43.57;32.13;;;;;;;;;;5015743;28;20162;-92
2020/12/07 01:38:28;;;;;;;51.90;33.27;;;;;;;;;;5015096;28;20179;-92
2020/12/07 01:41:00;;;;;;;47.97;31.97;;;;;;;;;;5015664;28;20246;-92
2020/12/07 01:43:26;;;;;;;47.03;32.23;;;;;;;;;;5016475;28;20185;-92
2020/12/07 01:45:56;;;;;;;50.67;32.37;;;;;;;;;;5016603;28;20203;-92
2020/12/07 01:48:27;;;;;;;49.87;31.77;;;;;;;;;;5014767;28;20289;-91
2020/12/07 01:50:59;;;;;;;46.57;33.40;;;;;;;;;;5014403;28;20175;-92
2020/12/07 01:53:31;;;;;;;47.80;32.93;;;;;;;;;;5014592;28;20181;-92
2020/12/07 01:56:03;;;;;;;45.83;32.73;;;;;;;;;;5014794;28;20175;-92
2020/12/07 01:58:32;;;;;;;48.63;33.17;;;;;;;;;;5013508;28;20203;-92
2020/12/07 02:01:05;;;;;;;47.63;32.33;;;;;;;;;;5013767;28;20184;-91
2020/12/07 02:03:35;;;;;;;52.60;34.13;;;;;;;;;;5014317;28;20183;-92
2020/12/07 02:06:06;;;;;;;44.60;32.37;;;;;;;;;;5014704;28;20202;-92
2020/12/07 02:08:36;;;;;;;54.40;33.03;;;;;;;;;;5014747;28;20231;-92
2020/12/07 02:11:04;;;;;;;45.07;33.30;;;;;;;;;;5014404;28;20178;-92
2020/12/07 02:13:38;;;;;;;42.47;31.67;;;;;;;;;;5014381;28;20174;-92
2020/12/07 02:16:09;;;;;;;46.60;33.33;;;;;;;;;;5014060;28;20182;-92
2020/12/07 02:18:41;;;;;;;48.87;31.43;;;;;;;;;;5014691;28;20176;-92
2020/12/07 02:21:11;;;;;;;47.03;32.00;;;;;;;;;;5014499;28;20170;-92
2020/12/07 02:23:41;;;;;;;43.57;30.90;;;;;;;;;;5013327;28;20159;-92
2020/12/07 02:26:07;;;;;;;42.23;31.13;;;;;;;;;;5013181;28;20531;-92
2020/12/07 02:28:41;;;;;;;46.90;31.53;;;;;;;;;;5013756;28;20210;-92
2020/12/07 02:31:10;;;;;;;44.13;31.70;;;;;;;;;;5013451;28;20179;-92
2020/12/07 02:33:40;;;;;;;45.23;32.57;;;;;;;;;;5013312;28;20178;-92
2020/12/07 02:36:11;;;;;;;45.13;32.07;;;;;;;;;;5012734;28;20214;-91
2020/12/07 02:38:41;;;;;;;43.27;31.50;;;;;;;;;;5013419;28;20183;-92
2020/12/07 02:41:11;;;;;;;42.27;30.73;;;;;;;;;;5013774;28;20210;-92
2020/12/07 02:43:45;;;;;;;39.33;29.23;;;;;;;;;;5014090;28;20183;-92
2020/12/07 02:46:11;;;;;;;40.17;29.47;;;;;;;;;;5013891;28;20179;-92
2020/12/07 02:48:46;;;;;;;38.43;28.83;;;;;;;;;;5013160;28;20198;-92
2020/12/07 02:51:17;;;;;;;43.77;31.33;;;;;;;;;;5012926;28;20179;-92
2020/12/07 02:53:47;;;;;;;41.17;30.23;;;;;;;;;;5012913;28;20174;-92
2020/12/07 02:56:18;;;;;;;35.93;28.93;;;;;;;;;;5014169;28;20163;-92
2020/12/07 02:58:54;;;;;;;41.27;30.63;;;;;;;;;;5014691;28;20245;-92
2020/12/07 03:01:23;;;;;;;43.63;30.23;;;;;;;;;;5013659;28;20178;-92
2020/12/07 03:03:55;;;;;;;40.50;30.50;;;;;;;;;;5013204;28;20204;-92
2020/12/07 03:06:24;;;;;;;40.23;28.60;;;;;;;;;;5014462;28;20211;-92
2020/12/07 03:08:57;;;;;;;39.13;28.37;;;;;;;;;;5014258;28;20200;-92
2020/12/07 03:11:24;;;;;;;39.73;29.00;;;;;;;;;;5015082;28;20591;-92
2020/12/07 03:13:55;;;;;;;38.17;29.20;;;;;;;;;;5014840;28;20199;-92
2020/12/07 03:16:28;;;;;;;37.90;29.60;;;;;;;;;;5014612;28;20198;-92
2020/12/07 03:19:01;;;;;;;40.00;28.73;;;;;;;;;;5015567;28;20231;-92
2020/12/07 03:21:31;;;;;;;39.50;29.73;;;;;;;;;;5015475;28;20171;-92
2020/12/07 03:24:02;;;;;;;41.67;29.93;;;;;;;;;;5013716;28;20219;-92
2020/12/07 03:26:34;;;;;;;36.27;29.73;;;;;;;;;;5013254;28;20182;-92
2020/12/07 03:29:07;;;;;;;38.07;28.07;;;;;;;;;;5015168;28;20202;-92
2020/12/07 03:31:41;;;;;;;38.00;29.67;;;;;;;;;;5015569;28;20251;-92
2020/12/07 03:34:11;;;;;;;37.77;29.10;;;;;;;;;;5015711;28;20239;-92
2020/12/07 03:36:41;;;;;;;39.90;28.73;;;;;;;;;;5015842;28;20314;-93
2020/12/07 03:39:17;;;;;;;39.70;30.47;;;;;;;;;;5016015;28;20180;-92
2020/12/07 03:41:48;;;;;;;37.50;29.50;;;;;;;;;;5016605;28;20174;-93
2020/12/07 03:44:20;;;;;;;40.33;30.00;;;;;;;;;;5016187;28;20234;-92
2020/12/07 03:46:51;;;;;;;35.83;28.13;;;;;;;;;;5017100;28;20163;-91
2020/12/07 03:49:21;;;;;;;40.83;29.23;;;;;;;;;;5017758;28;20198;-91
2020/12/07 03:51:49;;;;;;;37.13;28.73;;;;;;;;;;5017883;28;20197;-92
2020/12/07 03:54:21;;;;;;;37.97;29.23;;;;;;;;;;5021515;28;20207;-93
2020/12/07 03:56:54;;;;;;;36.63;29.07;;;;;;;;;;5021812;28;20179;-92
2020/12/07 03:59:30;;;;;;;39.23;28.17;;;;;;;;;;5021767;28;20172;-93
2020/12/07 04:02:02;;;;;;;36.37;28.33;;;;;;;;;;5021829;28;20186;-92
2020/12/07 04:07:34;;;;;;;39.27;28.40;;;;;;;;;;5000301;28;20164;-91
2020/12/07 04:10:05;;;;;;;34.17;28.23;;;;;;;;;;5021592;28;20263;-93
2020/12/07 04:12:35;;;;;;;31.00;27.60;;;;;;;;;;5021611;28;20233;-92
2020/12/07 04:15:06;;;;;;;36.53;28.07;;;;;;;;;;5021453;28;20179;-92
2020/12/07 04:17:41;;;;;;;39.07;27.67;;;;;;;;;;5021494;28;20216;-92
2020/12/07 04:20:11;;;;;;;32.60;27.40;;;;;;;;;;5021537;28;20166;-92
2020/12/07 04:22:41;;;;;;;36.17;26.43;;;;;;;;;;5021461;28;20161;-93
2020/12/07 04:25:11;;;;;;;35.73;26.93;;;;;;;;;;5021082;28;20203;-92
2020/12/07 04:27:41;;;;;;;33.70;25.83;;;;;;;;;;5021303;28;20167;-92
2020/12/07 04:30:11;;;;;;;36.50;26.47;;;;;;;;;;5021378;28;20202;-92
2020/12/07 04:32:41;;;;;;;31.37;24.83;;;;;;;;;;5021206;28;20170;-93
2020/12/07 04:35:11;;;;;;;36.90;27.70;;;;;;;;;;5020738;28;20207;-92
2020/12/07 04:37:41;;;;;;;31.77;26.17;;;;;;;;;;5021142;28;20643;-92
2020/12/07 04:40:11;;;;;;;31.60;26.00;;;;;;;;;;5020884;28;20178;-91
2020/12/07 04:42:41;;;;;;;28.67;25.57;;;;;;;;;;5020222;28;20175;-91
2020/12/07 04:45:11;;;;;;;33.40;26.40;;;;;;;;;;5020448;28;20192;-92
2020/12/07 04:47:41;;;;;;;33.23;25.80;;;;;;;;;;5020660;28;20181;-92
2020/12/07 04:50:11;;;;;;;40.20;26.63;;;;;;;;;;5020220;28;20208;-92
2020/12/07 04:52:45;;;;;;;30.70;25.40;;;;;;;;;;5020361;28;20228;-93
2020/12/07 04:55:13;;;;;;;30.13;25.43;;;;;;;;;;5018770;28;20259;-93
2020/12/07 04:57:46;;;;;;;27.57;24.60;;;;;;;;;;5108035;23;20608;-85
2020/12/07 05:00:14;;;;;;;34.07;25.10;;;;;;;;;;4994781;28;20184;-85
2020/12/07 05:02:45;;;;;;;30.70;24.93;;;;;;;;;;4994715;28;20177;-85
2020/12/07 05:05:15;;;;;;;28.37;25.30;;;;;;;;;;4995178;28;20181;-85
2020/12/07 05:07:46;;;;;;;28.27;24.63;;;;;;;;;;4995984;28;20235;-85
2020/12/07 05:10:18;;;;;;;31.30;26.97;;;;;;;;;;4994894;28;20318;-85
2020/12/07 05:12:55;;;;;;;29.13;24.60;;;;;;;;;;4994745;28;20177;-85
2020/12/07 05:15:30;;;;;;;31.80;27.53;;;;;;;;;;4996147;28;20529;-85
2020/12/07 05:18:01;;;;;;;30.70;26.63;;;;;;;;;;4996130;28;20191;-86
2020/12/07 05:20:31;;;;;;;30.37;25.23;;;;;;;;;;4995913;28;20184;-85
2020/12/07 05:23:05;;;;;;;29.23;25.77;;;;;;;;;;4995371;28;20192;-86
2020/12/07 05:25:39;;;;;;;28.60;24.27;;;;;;;;;;4994365;28;20187;-86
2020/12/07 05:28:11;;;;;;;31.03;25.70;;;;;;;;;;4994350;28;20197;-85
2020/12/07 05:30:46;;;;;;;29.67;26.33;;;;;;;;;;4994315;28;20193;-85
2020/12/07 05:33:19;;;;;;;27.43;24.50;;;;;;;;;;4994232;28;20527;-86
2020/12/07 05:35:53;;;;;;;29.83;24.23;;;;;;;;;;4994221;28;20223;-85
2020/12/07 05:38:35;;;;;;;33.37;26.70;;;;;;;;;;4994073;28;20576;-85
2020/12/07 05:41:07;;;;;;;28.93;25.77;;;;;;;;;;4995706;28;20165;-86
2020/12/07 05:43:39;;;;;;;30.27;26.87;;;;;;;;;;4994471;28;20227;-85
2020/12/07 05:46:07;;;;;;;30.00;26.60;;;;;;;;;;4993981;28;20646;-85
2020/12/07 05:48:39;;;;;;;29.00;25.97;;;;;;;;;;4995450;28;20236;-86
2020/12/07 05:51:11;;;;;;;35.33;26.53;;;;;;;;;;4995504;28;20708;-86
2020/12/07 05:53:41;;;;;;;29.23;25.87;;;;;;;;;;4995010;28;20578;-86
2020/12/07 05:56:12;;;;;;;29.40;26.20;;;;;;;;;;4993732;28;20185;-85
2020/12/07 05:58:47;;;;;;;31.27;24.83;;;;;;;;;;4993798;28;20188;-85
2020/12/07 06:01:18;;;;;;;29.53;24.90;;;;;;;;;;4993566;28;20235;-85
2020/12/07 06:03:51;;;;;;;29.63;25.33;;;;;;;;;;4993890;28;20177;-85
2020/12/07 06:06:32;;;;;;;29.17;25.00;;;;;;;;;;4993498;28;20295;-85
2020/12/07 06:09:05;;;;;;;27.70;24.53;;;;;;;;;;4993833;28;20263;-86
2020/12/07 06:11:39;;;;;;;26.73;23.93;;;;;;;;;;4994935;28;20177;-86
2020/12/07 06:14:20;;;;;;;28.20;24.37;;;;;;;;;;4994792;28;20292;-86
2020/12/07 06:16:54;;;;;;;28.43;24.93;;;;;;;;;;4992331;28;20577;-86
2020/12/07 06:19:29;;;;;;;29.33;24.13;;;;;;;;;;4994426;28;20498;-85
2020/12/07 06:21:57;;;;;;;27.80;24.90;;;;;;;;;;4993266;28;20179;-85
2020/12/07 06:24:39;;;;;;;27.93;24.93;;;;;;;;;;4994571;28;20186;-86
2020/12/07 06:27:11;;;;;;;26.80;24.00;;;;;;;;;;4994555;28;20311;-86
2020/12/07 06:30:00;;;;;;;28.30;25.17;;;;;;;;;;4994569;28;20201;-86
2020/12/07 06:32:48;;;;;;;27.57;24.63;;;;;;;;;;4993302;28;20165;-85
2020/12/07 06:35:22;;;;;;;27.90;24.83;;;;;;;;;;4993171;28;20189;-86
2020/12/07 06:37:55;;;;;;;27.53;24.83;;;;;;;;;;4994401;28;20206;-85
2020/12/07 06:40:29;;;;;;;26.47;23.67;;;;;;;;;;4994221;28;20186;-86
2020/12/07 06:43:01;;;;;;;29.60;23.70;;;;;;;;;;4994324;28;20181;-85
2020/12/07 06:45:40;;;;;;;30.07;24.30;;;;;;;;;;4992968;28;20192;-86
2020/12/07 06:48:12;;;;;;;27.43;24.47;;;;;;;;;;4994112;28;20200;-86
2020/12/07 06:50:44;;;;;;;26.43;23.60;;;;;;;;;;4992991;28;20185;-86
2020/12/07 06:53:41;;;;;;;24.50;22.00;;;;;;;;;;4993854;28;20530;-85
2020/12/07 06:56:10;;;;;;;24.90;22.13;;;;;;;;;;4992851;28;20272;-86
2020/12/07 06:58:41;;;;;;;25.50;22.63;;;;;;;;;;4992834;28;20225;-85
2020/12/07 07:01:11;;;;;;;25.93;23.23;;;;;;;;;;4992778;28;20272;-85
2020/12/07 07:03:49;;;;;;;29.30;23.53;;;;;;;;;;4992727;28;20189;-85
2020/12/07 07:06:21;;;;;;;24.10;21.60;;;;;;;;;;4994196;28;20182;-85
2020/12/07 07:08:51;;;;;;;25.23;22.33;;;;;;;;;;4994294;28;20266;-85
2020/12/07 07:11:21;;;;;;;24.97;22.43;;;;;;;;;;4994207;28;20180;-86
2020/12/07 07:13:55;;;;;;;29.20;22.47;;;;;;;;;;4992789;28;20204;-86
2020/12/07 07:16:25;;;;;;;23.47;21.13;;;;;;;;;;4992934;28;20189;-86
2020/12/07 07:18:58;;;;;;;23.97;21.47;;;;;;;;;;4993788;28;20182;-86
2020/12/07 07:21:33;;;;;;;25.40;21.77;;;;;;;;;;4992909;28;20170;-85
2020/12/07 07:24:09;;;;;;;24.33;21.87;;;;;;;;;;4994437;28;20165;-85
2020/12/07 07:26:43;;;;;;;25.27;22.73;;;;;;;;;;4993836;28;20189;-86
2020/12/07 07:29:11;;;;;;;25.43;22.80;;;;;;;;;;4996489;28;20226;-85
2020/12/07 07:31:46;;;;;;;23.90;21.40;;;;;;;;;;4996618;28;20177;-86
2020/12/07 07:34:16;;;;;;;24.80;22.30;;;;;;;;;;4997917;28;20168;-86
2020/12/07 07:36:45;;;;;;;23.07;20.77;;;;;;;;;;4996437;28;20280;-86
2020/12/07 07:39:21;;;;;;;27.33;22.63;;;;;;;;;;4997902;28;20183;-86
2020/12/07 07:41:51;;;;;;;24.97;22.47;;;;;;;;;;4996467;28;20200;-86
2020/12/07 07:44:21;;;;;;;23.83;21.43;;;;;;;;;;4997593;28;20180;-85
2020/12/07 07:46:52;;;;;;;24.27;21.77;;;;;;;;;;4996318;28;20232;-86
2020/12/07 07:49:36;;;;;;;24.10;21.70;;;;;;;;;;4997404;28;20277;-85
2020/12/07 08:18:08;;;;;;;23.67;21.17;;;;;;;;;;4997310;28;20204;-86
2020/12/07 08:20:53;;;;;;;25.13;21.83;;;;;;;;;;4996175;28;20238;-85
2020/12/07 08:23:34;;;;;;;23.80;21.37;;;;;;;;;;4995679;28;20178;-86
2020/12/07 08:26:06;;;;;;;24.00;21.50;;;;;;;;;;4996968;28;20170;-85
2020/12/07 08:28:42;;;;;;;24.07;21.20;;;;;;;;;;4995448;28;20181;-85
2020/12/07 08:31:23;;;;;;;22.90;20.57;;;;;;;;;;4996624;28;20211;-85
2020/12/07 08:33:59;;;;;;;23.53;21.07;;;;;;;;;;4997020;28;20174;-85
2020/12/07 08:36:33;;;;;;;23.90;21.40;;;;;;;;;;4996453;28;20273;-86
2020/12/07 08:39:06;;;;;;;25.07;21.13;;;;;;;;;;4994078;28;20196;-86
2020/12/07 08:41:37;;;;;;;28.73;20.67;;;;;;;;;;4995167;28;20178;-86
2020/12/07 08:44:10;;;;;;;27.77;22.43;;;;;;;;;;4996643;28;20158;-85
2020/12/07 08:46:41;;;;;;;26.57;22.87;;;;;;;;;;4996609;28;20244;-85
2020/12/07 08:49:11;;;;;;;25.53;22.83;;;;;;;;;;4994884;28;20234;-85
2020/12/07 08:51:41;;;;;;;26.27;23.53;;;;;;;;;;4995232;28;20211;-86
2020/12/07 08:54:10;;;;;;;25.77;22.70;;;;;;;;;;4996112;28;20177;-87
2020/12/07 08:56:41;;;;;;;26.20;23.57;;;;;;;;;;4994779;28;20210;-86
2020/12/07 08:59:15;;;;;;;26.70;23.77;;;;;;;;;;4996220;28;20196;-86
2020/12/07 09:01:45;;;;;;;26.73;23.87;;;;;;;;;;4994923;28;20185;-86
2020/12/07 09:04:15;;;;;;;28.20;25.40;;;;;;;;;;4996291;28;20726;-85
2020/12/07 09:06:48;;;;;;;27.70;24.83;;;;;;;;;;4995989;28;20193;-85
2020/12/07 09:09:20;;;;;;;28.30;25.33;;;;;;;;;;4995170;28;20205;-85
2020/12/07 09:11:46;;;;;;;28.70;25.73;;;;;;;;;;4994888;28;20174;-86
2020/12/07 09:14:17;;;;;;;29.90;26.67;;;;;;;;;;4997345;28;20170;-86
2020/12/07 09:16:43;;;;;;;32.17;28.20;;;;;;;;;;4996959;28;20674;-85
2020/12/07 09:19:14;;;;;;;32.27;28.30;;;;;;;;;;4996242;28;20177;-85
2020/12/07 09:21:45;;;;;;;33.87;28.13;;;;;;;;;;4996124;28;20177;-86
2020/12/07 09:24:17;;;;;;;30.33;27.10;;;;;;;;;;4995901;28;20313;-85
2020/12/07 09:26:49;;;;;;;31.03;27.40;;;;;;;;;;4996337;28;20193;-86
2020/12/07 09:29:20;;;;;;;33.67;27.67;;;;;;;;;;4996013;28;20198;-85
2020/12/07 09:31:50;;;;;;;32.80;27.63;;;;;;;;;;4997014;28;20241;-85
2020/12/07 09:34:20;;;;;;;31.83;27.70;;;;;;;;;;4996675;28;20170;-85
2020/12/07 09:36:46;;;;;;;30.60;27.33;;;;;;;;;;4996158;28;20205;-85
2020/12/07 09:39:15;;;;;;;33.80;29.30;;;;;;;;;;4996293;28;20177;-86
2020/12/07 09:41:45;;;;;;;38.53;29.17;;;;;;;;;;4995955;28;20181;-85
2020/12/07 09:44:15;;;;;;;36.83;28.77;;;;;;;;;;4995822;28;20659;-86
2020/12/07 09:46:41;;;;;;;33.63;28.83;;;;;;;;;;4994177;28;20286;-86
2020/12/07 09:49:11;;;;;;;34.73;29.07;;;;;;;;;;4995513;28;20225;-86
2020/12/07 09:51:41;;;;;;;34.27;30.47;;;;;;;;;;4993531;28;20177;-86
2020/12/07 09:54:11;;;;;;;37.40;31.57;;;;;;;;;;4994976;28;20170;-86
2020/12/07 09:56:41;;;;;;;36.27;29.80;;;;;;;;;;4993595;28;20210;-86
2020/12/07 09:59:11;;;;;;;36.57;28.63;;;;;;;;;;4993791;28;20178;-86
2020/12/07 10:01:41;;;;;;;36.90;29.40;;;;;;;;;;4993626;28;20732;-86
2020/12/07 10:04:11;;;;;;;33.23;28.77;;;;;;;;;;4994751;28;20180;-85
2020/12/07 10:06:38;;;;;;;29.63;26.67;;;;;;;;;;4995277;28;20247;-85
2020/12/07 10:09:04;;;;;;;29.87;26.47;;;;;;;;;;4994333;28;20365;-85
2020/12/07 10:11:30;;;;;;;29.77;26.57;;;;;;;;;;4994082;28;20184;-85
2020/12/07 10:13:57;;;;;;;32.70;27.93;;;;;;;;;;4994066;28;20221;-85
2020/12/07 10:16:23;;;;;;;34.70;29.23;;;;;;;;;;4993802;28;20205;-85
2020/12/07 10:18:51;;;;;;;33.33;28.70;;;;;;;;;;4994539;28;20209;-85
2020/12/07 10:21:24;;;;;;;31.63;26.30;;;;;;;;;;4995962;28;20188;-85
2020/12/07 10:23:51;;;;;;;36.33;27.00;;;;;;;;;;4996015;28;20525;-85
2020/12/07 10:26:21;;;;;;;43.33;32.33;;;;;;;;;;4994617;28;20199;-85
2020/12/07 10:28:52;;;;;;;53.67;36.33;;;;;;;;;;4993408;28;20327;-85
2020/12/07 10:31:23;;;;;;;47.40;32.67;;;;;;;;;;4995054;28;20196;-85
2020/12/07 10:33:53;;;;;;;55.47;36.60;;;;;;;;;;4993812;28;20182;-85
2020/12/07 10:36:20;;;;;;;58.23;35.53;;;;;;;;;;4995111;28;20190;-85
2020/12/07 10:38:51;;;;;;;51.17;34.67;;;;;;;;;;4993487;28;20188;-85
2020/12/07 10:41:29;;;;;;;52.17;35.13;;;;;;;;;;4993439;28;20187;-84
2020/12/07 10:44:01;;;;;;;45.00;30.77;;;;;;;;;;4995434;28;20179;-84
2020/12/07 10:46:28;;;;;;;50.67;34.13;;;;;;;;;;4993459;28;20202;-85
2020/12/07 10:48:54;;;;;;;47.37;32.27;;;;;;;;;;4993383;28;20230;-85
2020/12/07 10:51:22;;;;;;;36.67;27.03;;;;;;;;;;4993348;28;20665;-85
2020/12/07 10:53:51;;;;;;;40.53;27.53;;;;;;;;;;4993557;28;20195;-86
2020/12/07 10:56:19;;;;;;;38.97;26.67;;;;;;;;;;4994408;28;20662;-85
2020/12/07 10:58:51;;;;;;;34.53;24.37;;;;;;;;;;4994365;28;20176;-85
2020/12/07 11:03:58;;;;;;;35.13;24.53;;;;;;;;;;4864621;26;20217;-89
2020/12/07 11:06:30;;;;;;;27.07;21.97;;;;;;;;;;5013199;28;20227;-89
2020/12/07 11:09:12;;;;;;;33.33;22.23;;;;;;;;;;5012581;28;20210;-90
2020/12/07 11:11:41;;;;;;;29.40;22.93;;;;;;;;;;5013049;28;20171;-90
2020/12/07 11:14:11;;;;;;;23.40;18.50;;;;;;;;;;5012694;28;20568;-89
2020/12/07 11:16:41;;;;;;;30.07;23.90;;;;;;;;;;5012441;28;20193;-89
2020/12/07 11:19:11;;;;;;;23.00;18.93;;;;;;;;;;5012523;28;20196;-89
2020/12/07 11:21:41;;;;;;;29.37;22.93;;;;;;;;;;5012289;28;20188;-89
2020/12/07 11:24:11;;;;;;;34.23;24.97;;;;;;;;;;5012697;28;20567;-89
2020/12/07 11:26:44;;;;;;;33.13;26.50;;;;;;;;;;5012392;28;20233;-89
2020/12/07 11:29:15;;;;;;;33.40;27.50;;;;;;;;;;5014075;28;20272;-90
2020/12/07 11:31:49;;;;;;;34.20;28.13;;;;;;;;;;5014005;28;20224;-90
2020/12/07 11:34:22;;;;;;;32.33;28.80;;;;;;;;;;5013276;28;20252;-89
2020/12/07 11:36:53;;;;;;;34.87;30.30;;;;;;;;;;5012026;28;20180;-90
2020/12/07 11:44:46;;;;;;;27.53;24.13;;;;;;;;;;5014140;28;20171;-90
2020/12/07 11:47:14;;;;;;;29.87;25.13;;;;;;;;;;5013014;28;20557;-90
2020/12/07 11:49:48;;;;;;;29.17;26.17;;;;;;;;;;5014089;28;20249;-90
2020/12/07 11:52:15;;;;;;;27.87;24.73;;;;;;;;;;5013151;28;20209;-90
2020/12/07 11:54:44;;;;;;;28.20;25.17;;;;;;;;;;5013576;28;20185;-90
2020/12/07 11:57:11;;;;;;;26.20;23.37;;;;;;;;;;5013791;28;20181;-90
2020/12/07 11:59:38;;;;;;;23.33;20.83;;;;;;;;;;5012963;28;20269;-90
2020/12/07 12:02:06;;;;;;;27.70;23.37;;;;;;;;;;5013074;28;20303;-91
2020/12/07 12:04:35;;;;;;;27.23;24.20;;;;;;;;;;5014029;28;20170;-90
2020/12/07 12:07:04;;;;;;;28.27;25.27;;;;;;;;;;5014582;28;20239;-91
2020/12/07 12:09:32;;;;;;;28.83;24.97;;;;;;;;;;5014488;28;20225;-90
2020/12/07 12:12:01;;;;;;;28.13;25.10;;;;;;;;;;5014150;28;20200;-90
2020/12/07 12:14:30;;;;;;;28.47;25.37;;;;;;;;;;5016310;28;20208;-91
2020/12/07 12:17:05;;;;;;;31.77;26.20;;;;;;;;;;5016830;28;20182;-90
2020/12/07 12:19:36;;;;;;;29.83;25.13;;;;;;;;;;5016212;28;20269;-91
2020/12/07 12:22:05;;;;;;;29.50;25.40;;;;;;;;;;5016459;28;20198;-91
2020/12/07 12:24:36;;;;;;;29.67;26.47;;;;;;;;;;5016556;28;20182;-90
2020/12/07 12:27:04;;;;;;;29.67;26.20;;;;;;;;;;5016390;28;20183;-90
2020/12/07 12:29:30;;;;;;;26.93;24.00;;;;;;;;;;5016743;28;20212;-90
2020/12/07 12:31:59;;;;;;;28.13;25.13;;;;;;;;;;5016604;28;20198;-91
2020/12/07 12:34:35;;;;;;;25.90;23.17;;;;;;;;;;5016489;28;20266;-90
2020/12/07 12:37:02;;;;;;;23.67;21.27;;;;;;;;;;5015780;28;20177;-90
2020/12/07 12:39:34;;;;;;;25.20;22.53;;;;;;;;;;5016009;28;20249;-90
2020/12/07 12:42:01;;;;;;;25.13;22.43;;;;;;;;;;5016450;28;20211;-90
2020/12/07 12:44:30;;;;;;;23.47;21.17;;;;;;;;;;5015952;28;20676;-90
2020/12/07 12:46:58;;;;;;;22.83;20.43;;;;;;;;;;5015462;28;20174;-90
2020/12/07 12:49:24;;;;;;;22.40;20.00;;;;;;;;;;5015395;28;20218;-90
2020/12/07 12:51:50;;;;;;;21.53;19.50;;;;;;;;;;5016146;28;20299;-90
2020/12/07 12:54:24;;;;;;;20.83;18.73;;;;;;;;;;5015267;28;20584;-90
2020/12/07 12:56:56;;;;;;;20.07;18.00;;;;;;;;;;5015775;28;20183;-90
2020/12/07 12:59:25;;;;;;;21.50;19.30;;;;;;;;;;5015193;28;20278;-91
2020/12/07 13:01:57;;;;;;;20.77;18.67;;;;;;;;;;5015486;28;20213;-91
2020/12/07 13:04:30;;;;;;;20.23;18.23;;;;;;;;;;5015967;28;20204;-91
2020/12/07 13:07:01;;;;;;;20.63;17.60;;;;;;;;;;5015176;28;20195;-90
2020/12/07 13:09:32;;;;;;;18.93;16.93;;;;;;;;;;5016481;28;20206;-90
2020/12/07 13:12:04;;;;;;;20.37;18.37;;;;;;;;;;5015923;28;20193;-91
2020/12/07 13:14:41;;;;;;;20.43;18.43;;;;;;;;;;5015126;28;20179;-90
2020/12/07 13:17:14;;;;;;;21.73;18.20;;;;;;;;;;5017443;28;20177;-91
2020/12/07 13:19:46;;;;;;;20.30;18.13;;;;;;;;;;5015376;28;20175;-90
2020/12/07 13:22:35;;;;;;;22.90;20.77;;;;;;;;;;5016482;28;20201;-90
2020/12/07 13:25:19;;;;;;;22.03;18.50;;;;;;;;;;5013861;28;20178;-87
2020/12/07 13:30:24;;;;;;;20.87;18.73;;;;;;;;;;5015264;28;20314;-87
2020/12/07 13:32:56;;;;;;;23.00;19.00;;;;;;;;;;5015613;28;20186;-87
2020/12/07 13:35:29;;;;;;;20.53;18.40;;;;;;;;;;5015462;28;20159;-87
2020/12/07 13:38:01;;;;;;;18.90;16.97;;;;;;;;;;5013751;28;20205;-87
2020/12/07 13:40:35;;;;;;;23.40;19.43;;;;;;;;;;5013741;28;20285;-87
2020/12/07 13:43:08;;;;;;;19.07;17.03;;;;;;;;;;5013561;28;20200;-87
2020/12/07 13:45:41;;;;;;;21.87;18.13;;;;;;;;;;5013663;28;20182;-87
2020/12/07 13:48:11;;;;;;;20.67;18.30;;;;;;;;;;5015084;28;20674;-87
2020/12/07 13:50:41;;;;;;;21.77;16.77;;;;;;;;;;5013347;28;20210;-87
2020/12/07 13:53:11;;;;;;;23.37;20.10;;;;;;;;;;5013659;28;20227;-87
2020/12/07 13:55:47;;;;;;;19.13;17.13;;;;;;;;;;5013255;28;20693;-87
2020/12/07 13:58:19;;;;;;;29.47;22.67;;;;;;;;;;5013308;28;20187;-87
2020/12/07 14:00:51;;;;;;;25.70;21.07;;;;;;;;;;5013216;28;20181;-87
2020/12/07 14:03:26;;;;;;;42.03;31.27;;;;;;;;;;5013050;28;20218;-86
2020/12/07 14:06:00;;;;;;;35.17;25.00;;;;;;;;;;5014978;28;20175;-86
2020/12/07 14:08:33;;;;;;;24.87;20.07;;;;;;;;;;5014730;28;20183;-87
2020/12/07 14:11:04;;;;;;;26.13;21.33;;;;;;;;;;5013085;28;20178;-87
2020/12/07 14:13:39;;;;;;;30.67;26.47;;;;;;;;;;5014507;28;20192;-87
2020/12/07 14:16:11;;;;;;;25.33;21.13;;;;;;;;;;5014389;28;20172;-87
2020/12/07 14:18:58;;;;;;;25.83;21.60;;;;;;;;;;5014616;28;20184;-87
2020/12/07 14:27:05;;;;;;;21.83;19.33;;;;;;;;;;5014565;28;20281;-87
2020/12/07 14:40:34;;;;;;;22.03;19.63;;;;;;;;;;5013972;28;20231;-87
2020/12/07 14:43:04;;;;;;;26.07;20.67;;;;;;;;;;5012520;28;20197;-87
2020/12/07 14:45:55;;;;;;;20.83;18.57;;;;;;;;;;5013858;28;20175;-87
2020/12/07 14:48:24;;;;;;;18.47;16.63;;;;;;;;;;5014417;28;20166;-87
2020/12/07 14:51:04;;;;;;;21.67;19.43;;;;;;;;;;5012363;28;20201;-87
2020/12/07 14:53:40;;;;;;;22.53;20.23;;;;;;;;;;5012451;28;20543;-87
2020/12/07 14:56:15;;;;;;;21.63;19.07;;;;;;;;;;5013933;28;20165;-87
2020/12/07 15:01:59;;;;;;;22.10;19.80;;;;;;;;;;5013732;28;20565;-87
2020/12/07 15:07:44;;;;;;;24.27;19.00;;;;;;;;;;4994857;28;20173;-87
2020/12/07 15:15:22;;;;;;;20.83;18.43;;;;;;;;;;5013508;28;20203;-87
2020/12/07 15:17:49;;;;;;;20.23;18.10;;;;;;;;;;5012208;28;20177;-87
2020/12/07 15:20:16;;;;;;;21.23;18.63;;;;;;;;;;5012375;28;20188;-87
2020/12/07 15:22:43;;;;;;;23.53;20.30;;;;;;;;;;5013490;28;20280;-87
2020/12/07 15:25:11;;;;;;;17.10;15.50;;;;;;;;;;5012418;28;20676;-87
2020/12/07 15:27:37;;;;;;;23.40;20.83;;;;;;;;;;5013838;28;20200;-87
2020/12/07 15:30:05;;;;;;;20.60;18.60;;;;;;;;;;5012109;28;20202;-87
2020/12/07 15:32:33;;;;;;;24.87;22.17;;;;;;;;;;5013546;28;20280;-87
2020/12/07 15:35:04;;;;;;;20.43;18.40;;;;;;;;;;5013205;28;20174;-87
2020/12/07 15:37:37;;;;;;;22.37;20.10;;;;;;;;;;5012112;28;20650;-87
2020/12/07 15:40:06;;;;;;;21.87;19.53;;;;;;;;;;5012361;28;20177;-87
2020/12/07 15:42:38;;;;;;;18.10;16.40;;;;;;;;;;5013376;28;20198;-87
2020/12/07 15:45:11;;;;;;;20.30;18.20;;;;;;;;;;5011820;28;20673;-87
2020/12/07 15:47:41;;;;;;;20.37;18.37;;;;;;;;;;5013270;28;20269;-88